sensor_id;sensor_type;location;lat;lon;timestamp;pressure;altitude;pressure_sealevel;temperature;humidity
7109;BME280;29079;41.930;25.558;2024-03-02T00:02:41;99259.03;;;7.56;100.00
7109;BME280;29079;41.930;25.558;2024-03-02T00:05:29;99255.75;;;7.63;100.00
7109;BME280;29079;41.930;25.558;2024-03-02T00:08:23;99253.44;;;7.70;100.00
7109;BME280;29079;41.930;25.558;2024-03-02T00:11:11;99257.97;;;7.91;100.00
7109;BME280;29079;41.930;25.558;2024-03-02T00:14:01;99259.53;;;7.38;100.00
7109;BME280;29079;41.930;25.558;2024-03-02T00:16:49;99246.38;;;7.37;100.00
7109;BME280;29079;41.930;25.558;2024-03-02T00:19:40;99213.78;;;7.35;100.00
7109;BME280;29079;41.930;25.558;2024-03-02T00:22:28;99230.66;;;7.45;100.00
7109;BME280;29079;41.930;25.558;2024-03-02T00:25:16;99241.47;;;7.76;100.00
7109;BME280;29079;41.930;25.558;2024-03-02T00:28:04;99236.78;;;7.68;100.00
7109;BME280;29079;41.930;25.558;2024-03-02T00:30:58;99242.28;;;7.32;100.00
7109;BME280;29079;41.930;25.558;2024-03-02T00:33:47;99233.94;;;7.37;100.00
7109;BME280;29079;41.930;25.558;2024-03-02T00:36:37;99237.72;;;7.23;100.00
7109;BME280;29079;41.930;25.558;2024-03-02T00:39:26;99229.44;;;7.60;100.00
7109;BME280;29079;41.930;25.558;2024-03-02T00:42:14;99234.06;;;7.47;100.00
7109;BME280;29079;41.930;25.558;2024-03-02T00:45:07;99227.28;;;7.54;100.00
7109;BME280;29079;41.930;25.558;2024-03-02T00:47:55;99229.38;;;7.39;100.00
7109;BME280;29079;41.930;25.558;2024-03-02T00:50:44;99209.38;;;7.12;100.00
7109;BME280;29079;41.930;25.558;2024-03-02T00:53:34;99198.13;;;7.20;100.00
7109;BME280;29079;41.930;25.558;2024-03-02T00:56:22;99218.97;;;7.47;100.00
7109;BME280;29079;41.930;25.558;2024-03-02T00:59:11;99220.44;;;7.29;100.00
7109;BME280;29079;41.930;25.558;2024-03-02T01:01:58;99219.97;;;7.35;100.00
7109;BME280;29079;41.930;25.558;2024-03-02T01:04:48;99205.38;;;7.41;100.00
7109;BME280;29079;41.930;25.558;2024-03-02T01:07:38;99212.22;;;7.43;100.00
7109;BME280;29079;41.930;25.558;2024-03-02T01:10:27;99219.03;;;7.25;100.00
7109;BME280;29079;41.930;25.558;2024-03-02T01:13:15;99221.44;;;7.28;100.00
7109;BME280;29079;41.930;25.558;2024-03-02T01:16:03;99226.13;;;7.36;100.00
7109;BME280;29079;41.930;25.558;2024-03-02T01:18:51;99231.06;;;7.29;100.00
7109;BME280;29079;41.930;25.558;2024-03-02T01:21:39;99231.00;;;7.74;100.00
7109;BME280;29079;41.930;25.558;2024-03-02T01:24:27;99234.72;;;8.04;100.00
7109;BME280;29079;41.930;25.558;2024-03-02T01:27:17;99213.91;;;7.44;100.00
7109;BME280;29079;41.930;25.558;2024-03-02T01:30:06;99227.69;;;7.38;100.00
7109;BME280;29079;41.930;25.558;2024-03-02T01:32:55;99223.63;;;7.00;100.00
7109;BME280;29079;41.930;25.558;2024-03-02T01:35:43;99222.38;;;7.27;100.00
7109;BME280;29079;41.930;25.558;2024-03-02T01:38:31;99229.63;;;7.25;100.00
7109;BME280;29079;41.930;25.558;2024-03-02T01:41:20;99217.69;;;7.19;100.00
7109;BME280;29079;41.930;25.558;2024-03-02T01:44:09;99216.06;;;7.50;100.00
7109;BME280;29079;41.930;25.558;2024-03-02T01:46:57;99190.53;;;7.27;100.00
7109;BME280;29079;41.930;25.558;2024-03-02T01:49:45;99194.66;;;7.08;100.00
7109;BME280;29079;41.930;25.558;2024-03-02T01:52:33;99203.06;;;7.36;100.00
7109;BME280;29079;41.930;25.558;2024-03-02T01:55:21;99209.50;;;7.22;100.00
7109;BME280;29079;41.930;25.558;2024-03-02T01:58:09;99202.94;;;7.38;100.00
7109;BME280;29079;41.930;25.558;2024-03-02T02:00:59;99210.78;;;7.39;100.00
7109;BME280;29079;41.930;25.558;2024-03-02T02:03:47;99207.66;;;7.11;100.00
7109;BME280;29079;41.930;25.558;2024-03-02T02:06:35;99202.22;;;7.36;100.00
7109;BME280;29079;41.930;25.558;2024-03-02T02:09:23;99191.97;;;7.42;100.00
7109;BME280;29079;41.930;25.558;2024-03-02T02:12:11;99190.91;;;7.34;100.00
7109;BME280;29079;41.930;25.558;2024-03-02T02:14:59;99197.75;;;7.36;100.00
7109;BME280;29079;41.930;25.558;2024-03-02T02:17:49;99204.03;;;7.35;100.00
7109;BME280;29079;41.930;25.558;2024-03-02T02:20:37;99194.00;;;7.39;100.00
7109;BME280;29079;41.930;25.558;2024-03-02T02:23:27;99199.53;;;7.47;100.00
7109;BME280;29079;41.930;25.558;2024-03-02T02:26:14;99181.25;;;7.32;100.00
7109;BME280;29079;41.930;25.558;2024-03-02T02:29:02;99198.00;;;7.22;100.00
7109;BME280;29079;41.930;25.558;2024-03-02T02:31:50;99180.31;;;7.11;100.00
7109;BME280;29079;41.930;25.558;2024-03-02T02:34:38;99164.41;;;6.88;100.00
7109;BME280;29079;41.930;25.558;2024-03-02T02:37:26;99200.22;;;7.05;100.00
7109;BME280;29079;41.930;25.558;2024-03-02T02:40:17;99202.09;;;7.37;100.00
7109;BME280;29079;41.930;25.558;2024-03-02T02:43:06;99183.34;;;6.84;100.00
7109;BME280;29079;41.930;25.558;2024-03-02T02:45:54;99191.03;;;7.09;100.00
7109;BME280;29079;41.930;25.558;2024-03-02T02:48:42;99186.31;;;7.24;100.00
7109;BME280;29079;41.930;25.558;2024-03-02T02:51:31;99189.06;;;7.34;100.00
7109;BME280;29079;41.930;25.558;2024-03-02T02:54:19;99194.66;;;7.08;100.00
7109;BME280;29079;41.930;25.558;2024-03-02T02:57:08;99186.69;;;7.20;100.00
7109;BME280;29079;41.930;25.558;2024-03-02T02:59:56;99188.00;;;7.25;100.00
7109;BME280;29079;41.930;25.558;2024-03-02T03:02:45;99184.53;;;7.25;100.00
7109;BME280;29079;41.930;25.558;2024-03-02T03:05:36;99191.03;;;7.09;100.00
7109;BME280;29079;41.930;25.558;2024-03-02T03:08:24;99186.09;;;7.16;100.00
7109;BME280;29079;41.930;25.558;2024-03-02T03:11:12;99182.84;;;7.12;100.00
7109;BME280;29079;41.930;25.558;2024-03-02T03:14:02;99187.78;;;7.17;100.00
7109;BME280;29079;41.930;25.558;2024-03-02T03:16:51;99188.03;;;7.03;100.00
7109;BME280;29079;41.930;25.558;2024-03-02T03:19:40;99191.47;;;7.37;100.00
7109;BME280;29079;41.930;25.558;2024-03-02T03:22:28;99193.44;;;7.12;100.00
7109;BME280;29079;41.930;25.558;2024-03-02T03:25:16;99188.88;;;7.14;100.00
7109;BME280;29079;41.930;25.558;2024-03-02T03:28:04;99189.47;;;7.07;100.00
7109;BME280;29079;41.930;25.558;2024-03-02T03:30:54;99202.03;;;7.05;100.00
7109;BME280;29079;41.930;25.558;2024-03-02T03:33:42;99152.38;;;6.84;100.00
7109;BME280;29079;41.930;25.558;2024-03-02T03:36:30;99185.44;;;7.46;100.00
7109;BME280;29079;41.930;25.558;2024-03-02T03:39:18;99185.72;;;7.21;100.00
7109;BME280;29079;41.930;25.558;2024-03-02T03:42:06;99184.84;;;7.31;100.00
7109;BME280;29079;41.930;25.558;2024-03-02T03:44:54;99162.34;;;7.14;100.00
7109;BME280;29079;41.930;25.558;2024-03-02T03:47:44;99173.03;;;7.24;100.00
7109;BME280;29079;41.930;25.558;2024-03-02T03:50:32;99181.09;;;7.34;100.00
7109;BME280;29079;41.930;25.558;2024-03-02T03:53:20;99180.91;;;7.14;100.00
7109;BME280;29079;41.930;25.558;2024-03-02T03:56:08;99169.59;;;6.90;100.00
7109;BME280;29079;41.930;25.558;2024-03-02T03:58:56;99171.38;;;7.12;100.00
7109;BME280;29079;41.930;25.558;2024-03-02T04:01:46;99170.38;;;7.24;100.00
7109;BME280;29079;41.930;25.558;2024-03-02T04:04:35;99170.09;;;7.50;100.00
7109;BME280;29079;41.930;25.558;2024-03-02T04:07:23;99180.84;;;7.37;100.00
7109;BME280;29079;41.930;25.558;2024-03-02T04:10:11;99182.88;;;7.45;100.00
7109;BME280;29079;41.930;25.558;2024-03-02T04:12:59;99167.88;;;7.11;100.00
7109;BME280;29079;41.930;25.558;2024-03-02T04:15:47;99180.63;;;7.29;100.00
7109;BME280;29079;41.930;25.558;2024-03-02T04:18:36;98963.94;;;6.31;100.00
7109;BME280;29079;41.930;25.558;2024-03-02T04:21:26;99192.44;;;7.80;100.00
7109;BME280;29079;41.930;25.558;2024-03-02T04:24:14;99189.16;;;8.09;100.00
7109;BME280;29079;41.930;25.558;2024-03-02T04:27:02;99187.69;;;7.62;100.00
7109;BME280;29079;41.930;25.558;2024-03-02T04:29:50;99198.22;;;7.53;100.00
7109;BME280;29079;41.930;25.558;2024-03-02T04:32:37;99195.31;;;7.56;100.00
7109;BME280;29079;41.930;25.558;2024-03-02T04:35:25;99190.22;;;7.64;100.00
7109;BME280;29079;41.930;25.558;2024-03-02T04:38:15;99183.34;;;7.61;100.00
7109;BME280;29079;41.930;25.558;2024-03-02T04:41:04;99186.19;;;7.70;100.00
7109;BME280;29079;41.930;25.558;2024-03-02T04:43:52;99196.63;;;7.82;100.00
7109;BME280;29079;41.930;25.558;2024-03-02T04:46:40;99178.88;;;7.50;100.00
7109;BME280;29079;41.930;25.558;2024-03-02T04:49:28;99194.56;;;7.54;100.00
7109;BME280;29079;41.930;25.558;2024-03-02T04:52:16;99188.50;;;7.95;100.00
7109;BME280;29079;41.930;25.558;2024-03-02T04:55:06;99186.78;;;7.73;100.00
7109;BME280;29079;41.930;25.558;2024-03-02T04:58:21;99166.13;;;7.44;100.00
7109;BME280;29079;41.930;25.558;2024-03-02T05:01:09;99179.91;;;7.27;100.00
7109;BME280;29079;41.930;25.558;2024-03-02T05:03:58;99154.94;;;7.29;100.00
7109;BME280;29079;41.930;25.558;2024-03-02T05:06:46;99182.28;;;7.53;100.00
7109;BME280;29079;41.930;25.558;2024-03-02T05:09:39;99173.91;;;7.90;100.00
7109;BME280;29079;41.930;25.558;2024-03-02T05:12:30;99189.88;;;7.46;100.00
7109;BME280;29079;41.930;25.558;2024-03-02T05:15:42;99194.06;;;7.16;100.00
7109;BME280;29079;41.930;25.558;2024-03-02T05:18:30;99182.16;;;7.43;100.00
7109;BME280;29079;41.930;25.558;2024-03-02T05:21:18;99180.63;;;7.29;100.00
7109;BME280;29079;41.930;25.558;2024-03-02T05:24:06;99185.34;;;7.37;100.00
7109;BME280;29079;41.930;25.558;2024-03-02T05:26:55;99187.63;;;7.30;100.00
7109;BME280;29079;41.930;25.558;2024-03-02T05:29:44;99190.91;;;7.66;100.00
7109;BME280;29079;41.930;25.558;2024-03-02T05:32:32;99188.13;;;7.35;100.00
7109;BME280;29079;41.930;25.558;2024-03-02T05:35:20;99182.44;;;7.40;100.00
7109;BME280;29079;41.930;25.558;2024-03-02T05:38:08;99192.88;;;7.64;100.00
7109;BME280;29079;41.930;25.558;2024-03-02T05:40:56;99188.22;;;7.77;100.00
7109;BME280;29079;41.930;25.558;2024-03-02T05:43:44;99172.63;;;7.52;100.00
7109;BME280;29079;41.930;25.558;2024-03-02T05:46:34;99193.69;;;7.32;100.00
7109;BME280;29079;41.930;25.558;2024-03-02T05:49:24;99208.09;;;7.50;100.00
7109;BME280;29079;41.930;25.558;2024-03-02T05:52:11;99221.53;;;7.81;100.00
7109;BME280;29079;41.930;25.558;2024-03-02T05:55:00;99228.22;;;7.64;100.00
7109;BME280;29079;41.930;25.558;2024-03-02T05:57:48;99225.88;;;7.82;100.00
7109;BME280;29079;41.930;25.558;2024-03-02T06:00:48;99224.44;;;7.78;100.00
7109;BME280;29079;41.930;25.558;2024-03-02T06:03:38;99209.69;;;7.42;100.00
7109;BME280;29079;41.930;25.558;2024-03-02T06:06:26;99210.31;;;7.34;100.00
7109;BME280;29079;41.930;25.558;2024-03-02T06:09:15;99202.59;;;7.31;100.00
7109;BME280;29079;41.930;25.558;2024-03-02T06:12:03;99216.19;;;7.38;100.00
7109;BME280;29079;41.930;25.558;2024-03-02T06:14:52;99219.06;;;7.57;100.00
7109;BME280;29079;41.930;25.558;2024-03-02T06:17:42;99218.25;;;7.57;100.00
7109;BME280;29079;41.930;25.558;2024-03-02T06:20:31;99203.44;;;7.31;100.00
7109;BME280;29079;41.930;25.558;2024-03-02T06:23:22;99211.47;;;7.53;100.00
7109;BME280;29079;41.930;25.558;2024-03-02T06:26:11;99219.13;;;7.78;100.00
7109;BME280;29079;41.930;25.558;2024-03-02T06:29:02;99216.28;;;7.59;100.00
7109;BME280;29079;41.930;25.558;2024-03-02T06:31:50;99201.38;;;7.46;100.00
7109;BME280;29079;41.930;25.558;2024-03-02T06:34:40;99202.72;;;7.18;100.00
7109;BME280;29079;41.930;25.558;2024-03-02T06:37:30;99210.78;;;7.39;100.00
7109;BME280;29079;41.930;25.558;2024-03-02T06:40:17;99160.03;;;7.21;100.00
7109;BME280;29079;41.930;25.558;2024-03-02T06:43:06;99217.19;;;7.80;100.00
7109;BME280;29079;41.930;25.558;2024-03-02T06:45:54;99214.13;;;7.53;100.00
7109;BME280;29079;41.930;25.558;2024-03-02T06:48:42;99215.31;;;7.60;100.00
7109;BME280;29079;41.930;25.558;2024-03-02T06:51:30;99216.53;;;7.56;100.00
7109;BME280;29079;41.930;25.558;2024-03-02T06:54:20;99213.44;;;7.83;100.00
7109;BME280;29079;41.930;25.558;2024-03-02T06:57:08;99218.19;;;7.68;100.00
7109;BME280;29079;41.930;25.558;2024-03-02T06:59:55;99235.31;;;7.75;100.00
7109;BME280;29079;41.930;25.558;2024-03-02T07:02:45;99228.31;;;7.74;100.00
7109;BME280;29079;41.930;25.558;2024-03-02T07:05:33;99215.25;;;7.39;100.00
7109;BME280;29079;41.930;25.558;2024-03-02T07:08:21;99211.25;;;7.44;100.00
7109;BME280;29079;41.930;25.558;2024-03-02T07:11:11;99232.47;;;7.56;100.00
7109;BME280;29079;41.930;25.558;2024-03-02T07:13:59;99224.16;;;7.49;100.00
7109;BME280;29079;41.930;25.558;2024-03-02T07:16:48;99213.16;;;7.54;100.00
7109;BME280;29079;41.930;25.558;2024-03-02T07:19:38;99209.47;;;7.77;100.00
7109;BME280;29079;41.930;25.558;2024-03-02T07:22:26;99203.16;;;7.78;100.00
7109;BME280;29079;41.930;25.558;2024-03-02T07:25:14;99218.47;;;7.54;100.00
7109;BME280;29079;41.930;25.558;2024-03-02T07:28:07;99217.75;;;7.84;100.00
7109;BME280;29079;41.930;25.558;2024-03-02T07:30:58;99213.38;;;7.62;100.00
7109;BME280;29079;41.930;25.558;2024-03-02T07:33:46;99210.41;;;7.44;100.00
7109;BME280;29079;41.930;25.558;2024-03-02T07:36:35;99225.50;;;7.87;100.00
7109;BME280;29079;41.930;25.558;2024-03-02T07:39:25;99223.59;;;7.78;100.00
7109;BME280;29079;41.930;25.558;2024-03-02T07:42:14;99230.47;;;7.80;100.00
7109;BME280;29079;41.930;25.558;2024-03-02T07:45:05;99222.34;;;7.93;100.00
7109;BME280;29079;41.930;25.558;2024-03-02T07:47:53;99233.38;;;7.77;100.00
7109;BME280;29079;41.930;25.558;2024-03-02T07:50:41;99214.47;;;7.59;100.00
7109;BME280;29079;41.930;25.558;2024-03-02T07:53:29;99216.22;;;7.81;100.00
7109;BME280;29079;41.930;25.558;2024-03-02T07:56:17;99194.78;;;7.94;100.00
7109;BME280;29079;41.930;25.558;2024-03-02T07:59:09;99182.66;;;7.80;100.00
7109;BME280;29079;41.930;25.558;2024-03-02T08:01:58;99215.38;;;8.13;100.00
7109;BME280;29079;41.930;25.558;2024-03-02T08:04:47;99215.72;;;7.88;100.00
7109;BME280;29079;41.930;25.558;2024-03-02T08:07:35;99201.09;;;7.93;100.00
7109;BME280;29079;41.930;25.558;2024-03-02T08:10:23;99215.28;;;8.04;100.00
7109;BME280;29079;41.930;25.558;2024-03-02T08:13:11;99229.66;;;8.01;100.00
7109;BME280;29079;41.930;25.558;2024-03-02T08:16:00;99219.16;;;7.99;100.00
7109;BME280;29079;41.930;25.558;2024-03-02T08:18:51;99207.56;;;8.00;100.00
7109;BME280;29079;41.930;25.558;2024-03-02T08:21:40;99229.16;;;8.07;100.00
7109;BME280;29079;41.930;25.558;2024-03-02T08:24:27;99232.84;;;7.95;100.00
7109;BME280;29079;41.930;25.558;2024-03-02T08:27:16;99236.50;;;7.82;100.00
7109;BME280;29079;41.930;25.558;2024-03-02T08:30:04;99228.44;;;8.05;100.00
7109;BME280;29079;41.930;25.558;2024-03-02T08:32:55;99231.81;;;8.07;100.00
7109;BME280;29079;41.930;25.558;2024-03-02T08:35:44;99238.44;;;8.13;100.00
7109;BME280;29079;41.930;25.558;2024-03-02T08:38:33;99225.31;;;8.00;100.00
7109;BME280;29079;41.930;25.558;2024-03-02T08:41:21;99230.47;;;8.13;100.00
7109;BME280;29079;41.930;25.558;2024-03-02T08:44:09;99226.19;;;8.22;100.00
7109;BME280;29079;41.930;25.558;2024-03-02T08:46:58;99227.81;;;8.34;100.00
7109;BME280;29079;41.930;25.558;2024-03-02T08:49:46;99239.09;;;8.26;100.00
7109;BME280;29079;41.930;25.558;2024-03-02T08:52:36;99227.63;;;8.26;100.00
7109;BME280;29079;41.930;25.558;2024-03-02T08:55:24;99229.34;;;8.48;100.00
7109;BME280;29079;41.930;25.558;2024-03-02T08:58:13;99238.81;;;8.62;100.00
7109;BME280;29079;41.930;25.558;2024-03-02T09:01:00;99237.94;;;8.40;100.00
7109;BME280;29079;41.930;25.558;2024-03-02T09:03:49;99232.69;;;8.29;100.00
7109;BME280;29079;41.930;25.558;2024-03-02T09:06:38;99239.13;;;8.47;100.00
7109;BME280;29079;41.930;25.558;2024-03-02T09:09:27;99246.63;;;8.42;100.00
7109;BME280;29079;41.930;25.558;2024-03-02T09:12:19;99233.41;;;8.31;100.00
7109;BME280;29079;41.930;25.558;2024-03-02T09:15:08;99239.88;;;8.17;100.00
7109;BME280;29079;41.930;25.558;2024-03-02T09:17:56;99229.50;;;8.35;100.00
7109;BME280;29079;41.930;25.558;2024-03-02T09:20:44;99237.69;;;8.22;100.00
7109;BME280;29079;41.930;25.558;2024-03-02T09:23:32;99228.66;;;8.34;100.00
7109;BME280;29079;41.930;25.558;2024-03-02T09:26:21;99227.16;;;8.42;100.00
7109;BME280;29079;41.930;25.558;2024-03-02T09:29:11;99224.22;;;8.77;100.00
7109;BME280;29079;41.930;25.558;2024-03-02T09:31:59;99216.56;;;8.63;100.00
7109;BME280;29079;41.930;25.558;2024-03-02T09:34:47;99211.28;;;8.30;100.00
7109;BME280;29079;41.930;25.558;2024-03-02T09:37:35;99219.13;;;8.32;100.00
7109;BME280;29079;41.930;25.558;2024-03-02T09:40:23;99209.00;;;8.26;100.00
7109;BME280;29079;41.930;25.558;2024-03-02T09:43:13;99187.94;;;8.13;100.00
7109;BME280;29079;41.930;25.558;2024-03-02T09:46:01;99198.03;;;8.19;100.00
7109;BME280;29079;41.930;25.558;2024-03-02T09:48:50;99198.72;;;8.32;100.00
7109;BME280;29079;41.930;25.558;2024-03-02T09:51:38;99206.44;;;8.35;100.00
7109;BME280;29079;41.930;25.558;2024-03-02T09:54:27;99216.84;;;8.27;100.00
7109;BME280;29079;41.930;25.558;2024-03-02T09:57:16;99220.88;;;8.22;100.00
7109;BME280;29079;41.930;25.558;2024-03-02T10:00:07;99220.94;;;8.31;100.00
7109;BME280;29079;41.930;25.558;2024-03-02T10:03:01;99233.19;;;8.23;100.00
7109;BME280;29079;41.930;25.558;2024-03-02T10:05:51;99225.22;;;8.23;100.00
7109;BME280;29079;41.930;25.558;2024-03-02T10:08:43;99230.09;;;8.39;100.00
7109;BME280;29079;41.930;25.558;2024-03-02T10:11:32;99231.56;;;8.31;100.00
7109;BME280;29079;41.930;25.558;2024-03-02T10:14:21;99221.16;;;8.40;100.00
7109;BME280;29079;41.930;25.558;2024-03-02T10:17:11;99191.75;;;8.20;100.00
7109;BME280;29079;41.930;25.558;2024-03-02T10:19:59;99223.22;;;8.36;100.00
7109;BME280;29079;41.930;25.558;2024-03-02T10:23:11;99210.03;;;8.34;100.00
7109;BME280;29079;41.930;25.558;2024-03-02T10:26:00;99205.69;;;8.33;100.00
7109;BME280;29079;41.930;25.558;2024-03-02T10:28:48;99219.06;;;8.43;100.00
7109;BME280;29079;41.930;25.558;2024-03-02T10:31:37;99202.81;;;8.36;100.00
7109;BME280;29079;41.930;25.558;2024-03-02T10:34:27;99213.22;;;8.28;100.00
7109;BME280;29079;41.930;25.558;2024-03-02T10:37:15;99208.75;;;8.29;100.00
7109;BME280;29079;41.930;25.558;2024-03-02T10:40:05;99193.59;;;8.19;100.00
7109;BME280;29079;41.930;25.558;2024-03-02T10:42:55;99204.88;;;8.33;100.00
7109;BME280;29079;41.930;25.558;2024-03-02T10:45:44;99197.59;;;8.35;100.00
7109;BME280;29079;41.930;25.558;2024-03-02T10:48:35;99191.84;;;8.51;100.00
7109;BME280;29079;41.930;25.558;2024-03-02T10:51:25;99183.31;;;8.36;100.00
7109;BME280;29079;41.930;25.558;2024-03-02T10:54:14;99182.44;;;8.26;100.00
7109;BME280;29079;41.930;25.558;2024-03-02T10:57:03;99175.53;;;8.23;100.00
7109;BME280;29079;41.930;25.558;2024-03-02T10:59:56;99173.47;;;8.27;100.00
7109;BME280;29079;41.930;25.558;2024-03-02T11:02:50;99178.81;;;8.27;100.00
7109;BME280;29079;41.930;25.558;2024-03-02T11:05:41;99175.69;;;8.22;100.00
7109;BME280;29079;41.930;25.558;2024-03-02T11:08:33;99162.09;;;8.15;100.00
7109;BME280;29079;41.930;25.558;2024-03-02T11:11:28;99178.34;;;8.22;100.00
7109;BME280;29079;41.930;25.558;2024-03-02T11:14:22;99155.28;;;8.22;100.00
7109;BME280;29079;41.930;25.558;2024-03-02T11:17:13;99162.84;;;8.27;100.00
7109;BME280;29079;41.930;25.558;2024-03-02T11:20:03;99164.28;;;8.31;100.00
7109;BME280;29079;41.930;25.558;2024-03-02T11:22:52;99166.06;;;8.30;100.00
7109;BME280;29079;41.930;25.558;2024-03-02T11:25:41;99157.69;;;8.35;100.00
7109;BME280;29079;41.930;25.558;2024-03-02T11:28:35;99165.94;;;8.32;100.00
7109;BME280;29079;41.930;25.558;2024-03-02T11:31:57;99153.91;;;8.28;100.00
7109;BME280;29079;41.930;25.558;2024-03-02T11:34:47;99153.31;;;8.24;100.00
7109;BME280;29079;41.930;25.558;2024-03-02T11:37:36;99167.31;;;8.26;100.00
7109;BME280;29079;41.930;25.558;2024-03-02T11:40:25;99142.03;;;8.11;100.00
7109;BME280;29079;41.930;25.558;2024-03-02T11:43:14;99162.19;;;8.34;100.00
7109;BME280;29079;41.930;25.558;2024-03-02T11:46:04;99165.94;;;8.32;100.00
7109;BME280;29079;41.930;25.558;2024-03-02T11:48:54;99164.00;;;8.34;100.00
7109;BME280;29079;41.930;25.558;2024-03-02T11:51:54;99157.53;;;8.27;100.00
7109;BME280;29079;41.930;25.558;2024-03-02T11:54:48;99165.94;;;8.32;100.00
7109;BME280;29079;41.930;25.558;2024-03-02T11:57:38;99157.97;;;8.32;100.00
7109;BME280;29079;41.930;25.558;2024-03-02T12:00:27;99160.25;;;8.36;100.00
7109;BME280;29079;41.930;25.558;2024-03-02T12:03:16;99162.59;;;8.30;100.00
7109;BME280;29079;41.930;25.558;2024-03-02T12:06:05;99142.56;;;8.26;100.00
7109;BME280;29079;41.930;25.558;2024-03-02T12:08:53;99148.06;;;8.34;100.00
7109;BME280;29079;41.930;25.558;2024-03-02T12:11:41;99152.78;;;8.30;100.00
7109;BME280;29079;41.930;25.558;2024-03-02T12:14:30;99146.22;;;8.34;100.00
7109;BME280;29079;41.930;25.558;2024-03-02T12:17:19;99146.97;;;8.36;100.00
7109;BME280;29079;41.930;25.558;2024-03-02T12:20:12;99151.94;;;8.30;100.00
7109;BME280;29079;41.930;25.558;2024-03-02T12:23:01;99146.03;;;8.26;100.00
7109;BME280;29079;41.930;25.558;2024-03-02T12:25:50;99149.03;;;8.33;100.00
7109;BME280;29079;41.930;25.558;2024-03-02T12:28:38;99141.66;;;8.36;100.00
7109;BME280;29079;41.930;25.558;2024-03-02T12:31:26;99143.03;;;8.41;100.00
7109;BME280;29079;41.930;25.558;2024-03-02T12:34:15;99135.88;;;8.31;100.00
7109;BME280;29079;41.930;25.558;2024-03-02T12:37:05;99139.00;;;8.36;100.00
7109;BME280;29079;41.930;25.558;2024-03-02T12:39:53;99144.22;;;8.48;100.00
7109;BME280;29079;41.930;25.558;2024-03-02T12:42:41;99145.84;;;8.39;100.00
7109;BME280;29079;41.930;25.558;2024-03-02T12:45:29;99143.03;;;8.41;100.00
7109;BME280;29079;41.930;25.558;2024-03-02T12:48:17;99152.97;;;8.39;100.00
7109;BME280;29079;41.930;25.558;2024-03-02T12:51:06;99148.19;;;8.32;100.00
7109;BME280;29079;41.930;25.558;2024-03-02T12:53:55;99151.56;;;8.34;100.00
7109;BME280;29079;41.930;25.558;2024-03-02T12:56:43;99144.03;;;8.40;100.00
7109;BME280;29079;41.930;25.558;2024-03-02T12:59:32;99147.66;;;8.39;100.00
7109;BME280;29079;41.930;25.558;2024-03-02T13:02:20;99132.66;;;8.28;100.00
7109;BME280;29079;41.930;25.558;2024-03-02T13:05:08;99148.34;;;8.31;100.00
7109;BME280;29079;41.930;25.558;2024-03-02T13:08:00;99149.72;;;8.35;100.00
7109;BME280;29079;41.930;25.558;2024-03-02T13:10:50;99149.63;;;8.36;100.00
7109;BME280;29079;41.930;25.558;2024-03-02T13:13:38;99145.00;;;8.39;100.00
7109;BME280;29079;41.930;25.558;2024-03-02T13:16:26;99145.56;;;8.42;100.00
7109;BME280;29079;41.930;25.558;2024-03-02T13:19:25;99141.31;;;8.30;100.00
7109;BME280;29079;41.930;25.558;2024-03-02T13:22:17;99140.53;;;8.39;100.00
7109;BME280;29079;41.930;25.558;2024-03-02T13:25:06;99145.00;;;8.39;100.00
7109;BME280;29079;41.930;25.558;2024-03-02T13:27:57;99141.94;;;8.43;100.00
7109;BME280;29079;41.930;25.558;2024-03-02T13:30:46;99148.13;;;8.44;100.00
7109;BME280;29079;41.930;25.558;2024-03-02T13:33:34;99156.34;;;8.41;100.00
7109;BME280;29079;41.930;25.558;2024-03-02T13:36:22;99139.69;;;8.39;100.00
7109;BME280;29079;41.930;25.558;2024-03-02T13:39:10;99157.25;;;8.51;100.00
7109;BME280;29079;41.930;25.558;2024-03-02T13:42:04;99156.00;;;8.45;100.00
7109;BME280;29079;41.930;25.558;2024-03-02T13:44:52;99157.41;;;8.49;100.00
7109;BME280;29079;41.930;25.558;2024-03-02T13:47:40;99154.03;;;8.47;100.00
7109;BME280;29079;41.930;25.558;2024-03-02T13:50:28;99150.47;;;8.37;100.00
7109;BME280;29079;41.930;25.558;2024-03-02T13:53:16;99143.44;;;8.36;100.00
7109;BME280;29079;41.930;25.558;2024-03-02T13:56:05;99151.75;;;8.43;100.00
7109;BME280;29079;41.930;25.558;2024-03-02T13:58:56;99159.22;;;8.49;100.00
7109;BME280;29079;41.930;25.558;2024-03-02T14:01:44;99146.97;;;8.36;100.00
7109;BME280;29079;41.930;25.558;2024-03-02T14:04:33;99156.19;;;8.42;100.00
7109;BME280;29079;41.930;25.558;2024-03-02T14:07:21;99154.81;;;8.38;100.00
7109;BME280;29079;41.930;25.558;2024-03-02T14:10:10;99154.69;;;8.40;100.00
7109;BME280;29079;41.930;25.558;2024-03-02T14:12:58;99153.38;;;8.34;100.00
7109;BME280;29079;41.930;25.558;2024-03-02T14:15:48;99154.81;;;8.38;100.00
7109;BME280;29079;41.930;25.558;2024-03-02T14:18:36;99156.00;;;8.45;100.00
7109;BME280;29079;41.930;25.558;2024-03-02T14:21:24;99158.44;;;8.37;100.00
7109;BME280;29079;41.930;25.558;2024-03-02T14:24:12;99158.97;;;8.31;100.00
7109;BME280;29079;41.930;25.558;2024-03-02T14:26:59;99149.56;;;8.27;100.00
7109;BME280;29079;41.930;25.558;2024-03-02T14:30:06;99154.16;;;8.25;100.00
7109;BME280;29079;41.930;25.558;2024-03-02T14:32:56;99151.81;;;8.31;100.00
7109;BME280;29079;41.930;25.558;2024-03-02T14:35:44;99155.31;;;8.32;100.00
7109;BME280;29079;41.930;25.558;2024-03-02T14:38:33;99160.31;;;8.25;100.00
7109;BME280;29079;41.930;25.558;2024-03-02T14:41:21;99160.00;;;8.18;100.00
7109;BME280;29079;41.930;25.558;2024-03-02T14:44:10;99159.59;;;8.23;100.00
7109;BME280;29079;41.930;25.558;2024-03-02T14:46:58;99156.09;;;8.23;100.00
7109;BME280;29079;41.930;25.558;2024-03-02T14:49:47;99162.38;;;8.22;100.00
7109;BME280;29079;41.930;25.558;2024-03-02T14:52:35;99153.72;;;8.19;100.00
7109;BME280;29079;41.930;25.558;2024-03-02T14:55:23;99165.66;;;8.25;100.00
7109;BME280;29079;41.930;25.558;2024-03-02T14:58:12;99162.53;;;8.20;100.00